Time;durP1;ratioP1;P1;durP2;ratioP2;P2;SDS_P1;SDS_P2;PMS_P1;PMS_P2;Temp;Humidity;BMP_temperature;BMP_pressure;BME280_temperature;BME280_humidity;BME280_pressure;Samples;Min_cycle;Max_cycle;Signal;HPM_P1;HPM_P2
2021/09/25 00:01:44;;;;;;;2.67;2.17;;;16.80;99.90;;;;;;5071790;28;20207;-71
2021/09/25 00:04:10;;;;;;;2.70;2.20;;;16.80;99.90;;;;;;5072883;28;20222;-71
2021/09/25 00:06:35;;;;;;;5.93;1.93;;;16.70;99.90;;;;;;5037407;28;20226;-71
2021/09/25 00:09:01;;;;;;;2.33;2.13;;;16.70;99.90;;;;;;5054942;28;20219;-71
2021/09/25 00:11:28;;;;;;;2.30;2.10;;;16.70;99.90;;;;;;5052183;28;20212;-71
2021/09/25 00:13:55;;;;;;;4.03;2.00;;;16.70;99.90;;;;;;5053640;28;20227;-71
2021/09/25 00:16:25;;;;;;;2.83;2.60;;;16.60;99.90;;;;;;5038045;28;20446;-71
2021/09/25 00:18:55;;;;;;;2.70;2.50;;;16.60;99.90;;;;;;5053948;28;20480;-71
2021/09/25 00:21:21;;;;;;;2.60;2.40;;;16.60;99.90;;;;;;5035773;28;20481;-72
2021/09/25 00:23:46;;;;;;;3.40;2.70;;;16.60;99.90;;;;;;5050137;28;20460;-71
2021/09/25 00:26:12;;;;;;;3.27;2.97;;;16.60;99.90;;;;;;5052407;28;20532;-71
2021/09/25 00:28:38;;;;;;;3.20;2.90;;;16.60;99.90;;;;;;5053247;28;20211;-71
2021/09/25 00:31:04;;;;;;;2.50;2.30;;;16.50;99.90;;;;;;5038323;28;20233;-71
2021/09/25 00:33:30;;;;;;;2.50;2.10;;;16.50;99.90;;;;;;5053539;28;20532;-71
2021/09/25 00:35:56;;;;;;;2.83;1.93;;;16.40;99.90;;;;;;5033469;28;20216;-71
2021/09/25 00:38:21;;;;;;;2.60;2.40;;;16.40;99.90;;;;;;5054457;28;20224;-71
2021/09/25 00:40:47;;;;;;;2.30;2.00;;;16.40;99.90;;;;;;5036367;28;20211;-71
2021/09/25 00:43:13;;;;;;;1.80;1.70;;;16.40;99.90;;;;;;5061335;28;20216;-71
2021/09/25 00:45:39;;;;;;;2.50;1.90;;;16.40;99.90;;;;;;5017223;28;20220;-71
2021/09/25 00:48:04;;;;;;;2.80;1.90;;;16.30;99.90;;;;;;5034413;28;20215;-71
2021/09/25 00:50:30;;;;;;;2.33;1.70;;;16.30;99.90;;;;;;5036423;28;20203;-71
2021/09/25 00:52:56;;;;;;;2.77;1.57;;;16.30;99.90;;;;;;5071162;28;20203;-71
2021/09/25 00:55:23;;;;;;;2.10;2.00;;;16.30;99.90;;;;;;5036776;28;20630;-71
2021/09/25 00:57:57;;;;;;;1.90;1.80;;;16.30;99.90;;;;;;5028868;28;20507;-71
2021/09/25 01:00:23;;;;;;;2.40;1.80;;;16.20;99.90;;;;;;5054431;28;20507;-71
2021/09/25 01:02:48;;;;;;;1.77;1.50;;;16.20;99.90;;;;;;5053358;28;20819;-71
2021/09/25 01:05:17;;;;;;;2.33;2.10;;;16.20;99.90;;;;;;5040889;28;20208;-71
2021/09/25 01:07:43;;;;;;;1.90;1.80;;;16.20;99.90;;;;;;5036582;28;20215;-71
2021/09/25 01:10:09;;;;;;;2.03;1.63;;;16.20;99.90;;;;;;5035600;28;20438;-71
2021/09/25 01:12:36;;;;;;;2.30;2.10;;;16.20;99.90;;;;;;5025419;28;20462;-71
2021/09/25 01:15:03;;;;;;;2.10;1.87;;;16.10;99.90;;;;;;5058395;28;20521;-72
2021/09/25 01:17:29;;;;;;;1.80;1.70;;;16.10;99.90;;;;;;5037106;28;20453;-71
2021/09/25 01:19:55;;;;;;;2.17;1.90;;;16.10;99.90;;;;;;5070264;28;20441;-71
2021/09/25 01:22:21;;;;;;;1.93;1.80;;;16.10;99.90;;;;;;5022651;28;20216;-71
2021/09/25 01:24:46;;;;;;;2.60;1.90;;;16.00;99.90;;;;;;5049572;28;20227;-71
2021/09/25 01:27:12;;;;;;;1.50;1.40;;;16.00;99.90;;;;;;5052214;28;20465;-71
2021/09/25 01:29:38;;;;;;;2.97;2.20;;;16.00;99.90;;;;;;5052860;28;20222;-71
2021/09/25 01:32:05;;;;;;;4.47;2.47;;;16.00;99.90;;;;;;5053244;28;20309;-71
2021/09/25 01:34:31;;;;;;;1.83;1.73;;;16.00;99.90;;;;;;5053353;28;20953;-71
2021/09/25 01:36:57;;;;;;;2.23;2.10;;;15.90;99.90;;;;;;5052236;28;20441;-72
2021/09/25 01:39:22;;;;;;;1.90;1.80;;;15.90;99.90;;;;;;5053100;28;20234;-71
2021/09/25 01:41:48;;;;;;;1.80;1.70;;;15.90;99.90;;;;;;5070118;28;20306;-71
2021/09/25 01:44:14;;;;;;;1.60;1.50;;;15.90;99.90;;;;;;5036019;28;20223;-71
2021/09/25 01:46:40;;;;;;;2.30;1.93;;;15.80;99.90;;;;;;5052571;28;20215;-71
2021/09/25 01:49:06;;;;;;;2.30;2.10;;;15.80;99.90;;;;;;5037149;28;20218;-71
2021/09/25 01:51:31;;;;;;;1.80;1.70;;;15.80;99.90;;;;;;5066811;28;20215;-71
2021/09/25 01:53:57;;;;;;;1.97;1.77;;;15.80;99.90;;;;;;5044956;28;20530;-71
2021/09/25 01:56:23;;;;;;;3.53;2.53;;;15.80;99.90;;;;;;5025855;28;20210;-71
2021/09/25 01:58:48;;;;;;;2.03;1.60;;;15.70;99.90;;;;;;5043866;28;20223;-71
2021/09/25 02:01:14;;;;;;;1.70;1.60;;;15.70;99.90;;;;;;5036683;28;20275;-71
2021/09/25 02:03:40;;;;;;;2.27;2.10;;;15.70;99.90;;;;;;5035451;28;20256;-70
2021/09/25 02:06:07;;;;;;;2.20;2.10;;;15.70;99.90;;;;;;5048777;28;20713;-71
2021/09/25 02:08:34;;;;;;;2.70;2.33;;;15.70;99.90;;;;;;5024230;28;20224;-71
2021/09/25 02:11:00;;;;;;;2.10;1.80;;;15.60;99.90;;;;;;5045555;28;20449;-71
2021/09/25 02:13:26;;;;;;;2.77;1.90;;;15.60;99.90;;;;;;5051229;28;20461;-71
2021/09/25 02:15:52;;;;;;;2.67;1.87;;;15.60;99.90;;;;;;5052353;28;20939;-71
2021/09/25 02:18:18;;;;;;;3.17;2.63;;;15.50;99.90;;;;;;5052912;28;20470;-71
2021/09/25 02:20:44;;;;;;;2.67;2.20;;;15.60;99.90;;;;;;5051145;28;20464;-71
2021/09/25 02:23:10;;;;;;;3.17;2.87;;;15.50;99.90;;;;;;5043809;28;20258;-71
2021/09/25 02:25:35;;;;;;;2.23;2.03;;;15.50;99.90;;;;;;5068932;28;20269;-71
2021/09/25 02:28:01;;;;;;;2.77;2.03;;;15.50;99.90;;;;;;5070274;28;20219;-71
2021/09/25 02:30:27;;;;;;;3.00;2.10;;;15.50;99.90;;;;;;5035205;28;20203;-71
2021/09/25 02:32:54;;;;;;;2.73;2.53;;;15.50;99.90;;;;;;5036470;28;20226;-71
2021/09/25 02:35:21;;;;;;;2.43;2.23;;;15.40;99.90;;;;;;5026773;28;20525;-71
2021/09/25 02:37:48;;;;;;;3.50;2.30;;;15.40;99.90;;;;;;5037099;28;20454;-71
2021/09/25 02:40:14;;;;;;;2.60;2.40;;;15.40;99.90;;;;;;5049938;28;21062;-72
2021/09/25 02:42:40;;;;;;;2.10;1.90;;;15.40;99.90;;;;;;5033716;28;20461;-69
2021/09/25 02:45:07;;;;;;;2.57;2.37;;;15.40;99.90;;;;;;5048750;28;20998;-71
2021/09/25 02:47:33;;;;;;;2.03;1.93;;;15.40;99.90;;;;;;5069179;28;20452;-69
2021/09/25 02:49:59;;;;;;;4.10;2.50;;;15.40;99.90;;;;;;5042693;28;20808;-71
2021/09/25 02:52:26;;;;;;;2.60;2.40;;;15.30;99.90;;;;;;5047417;28;20242;-71
2021/09/25 02:54:52;;;;;;;2.47;1.90;;;15.30;99.90;;;;;;5014911;28;20211;-71
2021/09/25 02:57:18;;;;;;;2.50;2.30;;;15.30;99.90;;;;;;5048675;28;20483;-71
2021/09/25 02:59:44;;;;;;;2.20;2.00;;;15.30;99.90;;;;;;5044503;28;20477;-71
2021/09/25 03:02:09;;;;;;;2.93;2.20;;;15.30;99.90;;;;;;5051929;28;20218;-72
2021/09/25 03:04:35;;;;;;;2.70;2.10;;;15.30;99.90;;;;;;5055484;28;20446;-71
2021/09/25 03:07:00;;;;;;;2.87;2.50;;;15.20;99.90;;;;;;5072565;28;20219;-71
2021/09/25 03:09:26;;;;;;;2.80;2.60;;;15.20;99.90;;;;;;5047627;28;20206;-71
2021/09/25 03:11:52;;;;;;;3.00;2.30;;;15.20;99.90;;;;;;5038300;28;20206;-71
2021/09/25 03:14:18;;;;;;;3.00;2.60;;;15.20;99.90;;;;;;5035485;28;20222;-71
2021/09/25 03:16:43;;;;;;;2.87;1.83;;;15.10;99.90;;;;;;5038905;28;20206;-71
2021/09/25 03:19:09;;;;;;;2.17;1.97;;;15.10;99.90;;;;;;5039613;28;20247;-71
2021/09/25 03:21:35;;;;;;;1.90;1.60;;;15.10;99.90;;;;;;5070882;28;20214;-71
2021/09/25 03:24:00;;;;;;;2.13;1.93;;;15.10;99.90;;;;;;5047314;28;20219;-71
2021/09/25 03:26:26;;;;;;;2.80;2.10;;;15.10;99.90;;;;;;5055814;28;20686;-71
2021/09/25 03:28:51;;;;;;;3.40;2.40;;;15.00;99.90;;;;;;5073483;28;20223;-71
2021/09/25 03:31:17;;;;;;;2.10;1.90;;;15.00;99.90;;;;;;5055867;28;20211;-71
2021/09/25 03:33:43;;;;;;;2.70;2.50;;;15.00;99.90;;;;;;5037987;28;20218;-71
2021/09/25 03:36:08;;;;;;;2.60;2.33;;;15.00;99.90;;;;;;5055718;28;20234;-71
2021/09/25 03:38:34;;;;;;;2.60;2.40;;;15.00;99.90;;;;;;5039120;28;20300;-69
2021/09/25 03:41:00;;;;;;;3.30;2.50;;;15.00;99.90;;;;;;5072823;28;20211;-71
2021/09/25 03:43:26;;;;;;;2.20;2.00;;;14.90;99.90;;;;;;5054478;28;20215;-71
2021/09/25 03:45:52;;;;;;;3.33;2.73;;;14.90;99.90;;;;;;5038652;28;20456;-71
2021/09/25 03:48:18;;;;;;;3.17;2.87;;;14.90;99.90;;;;;;5054800;28;20445;-71
2021/09/25 03:50:44;;;;;;;2.60;2.40;;;14.90;99.90;;;;;;5037509;28;20265;-71
2021/09/25 03:53:11;;;;;;;1.97;1.87;;;14.80;99.90;;;;;;5071574;28;20215;-72
2021/09/25 03:55:37;;;;;;;2.30;2.10;;;14.70;99.90;;;;;;5038285;28;20298;-70
2021/09/25 03:58:03;;;;;;;2.20;2.00;;;14.70;99.90;;;;;;5054735;28;20525;-71
2021/09/25 04:00:28;;;;;;;2.33;2.13;;;14.70;99.90;;;;;;5038317;28;20219;-71
2021/09/25 04:02:55;;;;;;;3.63;2.27;;;14.80;99.90;;;;;;5058728;28;20250;-71
2021/09/25 04:05:22;;;;;;;2.27;2.07;;;14.70;99.90;;;;;;5053813;28;20269;-71
2021/09/25 04:07:49;;;;;;;2.57;2.20;;;14.70;99.90;;;;;;5038072;28;20445;-71
2021/09/25 04:10:16;;;;;;;2.50;2.30;;;14.70;99.90;;;;;;5071476;28;20442;-72
2021/09/25 04:12:42;;;;;;;3.50;2.43;;;14.70;99.90;;;;;;5032976;28;20446;-69
2021/09/25 04:15:10;;;;;;;2.20;2.00;;;14.70;99.90;;;;;;5054160;28;20452;-71
2021/09/25 04:17:36;;;;;;;6.93;3.30;;;14.60;99.90;;;;;;5050053;28;21026;-71
2021/09/25 04:20:04;;;;;;;5.17;2.80;;;14.60;99.90;;;;;;5054522;28;20450;-71
2021/09/25 04:22:30;;;;;;;6.13;2.23;;;14.60;99.90;;;;;;5054609;28;20477;-71
2021/09/25 04:24:55;;;;;;;2.13;1.93;;;14.60;99.90;;;;;;5041630;28;20479;-71
2021/09/25 04:27:21;;;;;;;4.67;2.70;;;14.60;99.90;;;;;;5071509;28;20227;-71
2021/09/25 04:29:47;;;;;;;2.90;2.60;;;14.50;99.90;;;;;;5054458;28;20278;-71
2021/09/25 04:32:12;;;;;;;3.23;2.30;;;14.50;99.90;;;;;;5037751;28;20215;-71
2021/09/25 04:34:38;;;;;;;2.43;2.20;;;14.50;99.90;;;;;;5036469;28;20211;-72
2021/09/25 04:37:03;;;;;;;3.57;2.70;;;14.50;99.90;;;;;;5037268;28;20222;-71
2021/09/25 04:39:29;;;;;;;2.63;2.00;;;14.50;99.90;;;;;;5038226;28;20242;-71
2021/09/25 04:41:55;;;;;;;2.17;1.97;;;14.40;99.90;;;;;;5053226;28;20713;-71
2021/09/25 04:44:20;;;;;;;2.80;2.37;;;14.40;99.90;;;;;;5043973;28;20270;-71
2021/09/25 04:46:46;;;;;;;3.30;2.20;;;14.40;99.90;;;;;;5017549;28;20625;-70
2021/09/25 04:49:12;;;;;;;2.20;1.90;;;14.20;99.90;;;;;;5053472;28;20302;-71
2021/09/25 04:51:38;;;;;;;3.33;2.30;;;14.30;99.90;;;;;;5041950;28;20212;-71
2021/09/25 04:54:04;;;;;;;2.10;1.90;;;14.30;99.90;;;;;;5050800;28;20457;-71
2021/09/25 04:56:31;;;;;;;2.67;2.40;;;14.30;99.90;;;;;;5063058;28;20243;-71
2021/09/25 04:58:56;;;;;;;2.00;1.87;;;14.30;99.90;;;;;;5036273;28;20219;-71
2021/09/25 05:01:22;;;;;;;2.27;2.07;;;14.20;99.90;;;;;;5052615;28;20441;-71
2021/09/25 05:03:48;;;;;;;4.10;2.33;;;14.20;99.90;;;;;;5036080;28;20223;-71
2021/09/25 05:06:15;;;;;;;4.90;2.53;;;14.20;99.90;;;;;;5053506;28;20218;-71
2021/09/25 05:08:40;;;;;;;2.00;1.90;;;14.20;99.90;;;;;;5045046;28;20211;-70
2021/09/25 05:11:06;;;;;;;2.03;1.80;;;14.20;99.90;;;;;;5050015;28;20958;-71
2021/09/25 05:13:32;;;;;;;3.03;2.40;;;14.20;99.90;;;;;;5032798;28;20667;-71
2021/09/25 05:15:58;;;;;;;4.23;2.63;;;14.20;99.90;;;;;;5065026;28;20214;-71
2021/09/25 05:18:24;;;;;;;3.30;2.53;;;14.20;99.90;;;;;;5045269;28;20687;-71
2021/09/25 05:20:50;;;;;;;5.40;2.43;;;14.10;99.90;;;;;;5036574;28;20230;-71
2021/09/25 05:23:16;;;;;;;3.70;2.20;;;14.10;99.90;;;;;;5021051;28;20227;-71
2021/09/25 05:25:42;;;;;;;2.30;1.93;;;14.10;99.90;;;;;;5041785;28;20977;-71
2021/09/25 05:28:08;;;;;;;2.63;2.20;;;14.10;99.90;;;;;;5036798;28;20476;-71
2021/09/25 05:30:34;;;;;;;3.77;2.47;;;14.10;99.90;;;;;;5070266;28;20215;-71
2021/09/25 05:33:00;;;;;;;5.63;2.90;;;14.10;99.90;;;;;;5055735;28;20218;-71
2021/09/25 05:35:25;;;;;;;3.30;2.67;;;14.00;99.90;;;;;;5073140;28;20218;-71
2021/09/25 05:37:52;;;;;;;2.67;2.47;;;14.00;99.90;;;;;;5035598;28;20650;-71
2021/09/25 05:40:18;;;;;;;3.67;2.50;;;14.00;99.90;;;;;;5071254;28;20223;-71
2021/09/25 05:42:44;;;;;;;3.30;2.23;;;13.90;99.90;;;;;;5049385;28;20558;-71
2021/09/25 05:45:11;;;;;;;2.13;1.97;;;13.90;99.90;;;;;;5041657;28;20512;-71
2021/09/25 05:47:36;;;;;;;4.00;3.00;;;14.00;99.90;;;;;;5034411;28;20225;-71
2021/09/25 05:50:03;;;;;;;3.20;2.90;;;13.90;99.90;;;;;;5030427;28;20525;-72
2021/09/25 05:52:29;;;;;;;2.83;2.37;;;13.90;99.90;;;;;;5034894;28;20269;-71
2021/09/25 05:54:55;;;;;;;2.50;2.23;;;13.90;99.90;;;;;;5052068;28;20457;-71
2021/09/25 05:57:20;;;;;;;2.10;1.90;;;13.90;99.90;;;;;;5048896;28;20679;-71
2021/09/25 05:59:46;;;;;;;2.40;2.20;;;13.90;99.90;;;;;;5024513;28;20232;-71
2021/09/25 06:02:12;;;;;;;2.53;2.20;;;13.90;99.90;;;;;;5046725;28;20264;-71
2021/09/25 06:04:37;;;;;;;3.80;2.37;;;13.80;99.90;;;;;;5051374;28;20242;-71
2021/09/25 06:07:04;;;;;;;2.40;2.20;;;13.90;99.90;;;;;;5037172;28;20711;-71
2021/09/25 06:09:30;;;;;;;2.60;2.33;;;13.90;99.90;;;;;;5046572;28;20840;-71
2021/09/25 06:11:59;;;;;;;2.50;1.90;;;13.90;99.90;;;;;;5043767;28;20450;-71
2021/09/25 06:14:24;;;;;;;2.00;1.80;;;13.90;99.90;;;;;;5035749;28;20215;-71
2021/09/25 06:16:50;;;;;;;2.60;2.23;;;13.90;99.90;;;;;;5034280;28;20453;-71
2021/09/25 06:19:16;;;;;;;2.77;2.53;;;13.80;99.90;;;;;;5033927;28;20231;-71
2021/09/25 06:21:42;;;;;;;2.97;2.60;;;13.80;99.90;;;;;;5047547;28;20230;-71
2021/09/25 06:24:10;;;;;;;2.47;2.27;;;13.80;99.90;;;;;;5033722;28;20215;-71
2021/09/25 06:26:35;;;;;;;3.30;2.27;;;13.80;99.90;;;;;;5035376;28;20488;-71
2021/09/25 06:29:01;;;;;;;2.60;2.40;;;13.80;99.90;;;;;;5070272;28;20966;-71
2021/09/25 06:31:26;;;;;;;2.70;2.47;;;13.90;99.90;;;;;;5064940;28;20234;-71
2021/09/25 06:33:52;;;;;;;2.33;2.13;;;13.80;99.90;;;;;;5069477;28;20230;-71
2021/09/25 06:36:18;;;;;;;3.53;2.80;;;13.90;99.90;;;;;;5050633;28;20211;-71
2021/09/25 06:38:43;;;;;;;4.90;2.80;;;13.90;99.90;;;;;;5025110;28;20218;-71
2021/09/25 06:41:09;;;;;;;2.63;2.40;;;13.90;99.90;;;;;;5052381;28;20270;-71
2021/09/25 06:43:35;;;;;;;2.97;2.33;;;13.90;99.90;;;;;;5050884;28;20305;-71
2021/09/25 06:46:01;;;;;;;4.30;3.00;;;13.90;99.90;;;;;;5048743;28;20265;-71
2021/09/25 06:48:26;;;;;;;2.97;2.67;;;13.90;99.90;;;;;;5042652;28;20215;-71
2021/09/25 06:50:52;;;;;;;3.13;2.83;;;13.90;99.90;;;;;;5068420;28;20471;-71
2021/09/25 06:53:18;;;;;;;3.20;2.90;;;14.00;99.90;;;;;;5043326;28;20647;-71
2021/09/25 06:55:43;;;;;;;3.43;2.90;;;14.00;99.90;;;;;;5048290;28;20587;-71
2021/09/25 06:58:09;;;;;;;3.43;3.13;;;14.00;99.90;;;;;;5064554;28;20230;-71
2021/09/25 07:00:35;;;;;;;3.10;2.70;;;14.10;99.90;;;;;;5050517;28;20219;-71
2021/09/25 07:03:01;;;;;;;3.43;3.13;;;14.10;99.90;;;;;;5051605;28;20449;-71
2021/09/25 07:05:27;;;;;;;3.60;3.07;;;14.20;99.90;;;;;;5035064;28;20460;-71
2021/09/25 07:07:53;;;;;;;9.00;2.67;;;14.20;99.90;;;;;;5043296;28;20268;-71
2021/09/25 07:10:19;;;;;;;4.20;2.30;;;14.20;99.90;;;;;;5031726;28;20239;-71
2021/09/25 07:12:45;;;;;;;3.90;2.50;;;14.30;99.90;;;;;;5037206;28;20207;-71
2021/09/25 07:15:12;;;;;;;4.10;2.77;;;14.30;99.90;;;;;;5050113;28;20445;-71
2021/09/25 07:17:38;;;;;;;2.47;2.27;;;14.30;99.90;;;;;;5028793;28;20210;-71
2021/09/25 07:20:05;;;;;;;4.47;3.13;;;14.40;99.90;;;;;;5034739;28;20453;-71
2021/09/25 07:22:30;;;;;;;4.50;3.80;;;14.40;99.90;;;;;;5032566;28;20215;-71
2021/09/25 07:24:56;;;;;;;3.80;3.20;;;14.50;99.90;;;;;;5036509;28;20563;-71
2021/09/25 07:27:23;;;;;;;5.93;2.97;;;14.50;99.90;;;;;;5032307;28;20211;-71
2021/09/25 07:29:49;;;;;;;3.93;2.70;;;14.60;99.90;;;;;;5031342;28;20230;-71
2021/09/25 07:32:16;;;;;;;3.90;3.00;;;14.60;99.90;;;;;;5034689;28;20445;-71
2021/09/25 07:34:41;;;;;;;3.00;2.70;;;14.70;99.90;;;;;;5050833;28;21004;-71
2021/09/25 07:37:07;;;;;;;3.30;3.00;;;14.70;99.90;;;;;;5035063;28;20448;-71
2021/09/25 07:39:34;;;;;;;4.63;3.00;;;14.70;99.90;;;;;;5068974;28;20227;-71
2021/09/25 07:42:00;;;;;;;3.10;2.53;;;14.70;99.90;;;;;;5032643;28;20473;-71
2021/09/25 07:44:26;;;;;;;2.73;2.40;;;14.80;99.90;;;;;;5069169;28;20477;-71
2021/09/25 07:46:52;;;;;;;2.60;2.40;;;14.80;99.90;;;;;;5063011;28;20469;-71
2021/09/25 07:49:18;;;;;;;2.70;2.50;;;14.90;99.90;;;;;;5052042;28;20211;-71
2021/09/25 07:51:43;;;;;;;2.50;2.30;;;15.00;99.90;;;;;;5036802;28;20211;-70
2021/09/25 07:54:09;;;;;;;2.80;2.43;;;15.10;99.90;;;;;;5042603;28;20234;-71
2021/09/25 07:56:35;;;;;;;3.43;2.87;;;15.10;99.90;;;;;;5038083;28;20612;-71
2021/09/25 07:59:01;;;;;;;4.37;2.90;;;15.20;99.90;;;;;;5052899;28;20227;-71
2021/09/25 08:01:27;;;;;;;3.77;3.00;;;15.30;99.90;;;;;;5053364;28;20234;-71
2021/09/25 08:03:52;;;;;;;2.90;2.70;;;15.40;99.90;;;;;;5052659;28;20450;-71
2021/09/25 08:06:19;;;;;;;4.47;2.93;;;15.50;99.90;;;;;;5038092;28;20235;-71
2021/09/25 08:08:45;;;;;;;2.80;2.60;;;15.50;99.90;;;;;;5038265;28;20219;-71
2021/09/25 08:11:11;;;;;;;2.90;2.53;;;15.70;99.90;;;;;;5026480;28;20972;-71
2021/09/25 08:13:36;;;;;;;2.70;2.43;;;15.80;99.90;;;;;;5048592;28;20477;-71
2021/09/25 08:16:04;;;;;;;3.63;2.80;;;15.80;99.90;;;;;;5019040;28;20220;-70
2021/09/25 08:18:30;;;;;;;4.83;2.40;;;16.00;99.90;;;;;;5062987;28;20230;-71
2021/09/25 08:20:56;;;;;;;3.70;2.73;;;16.10;99.90;;;;;;5037551;28;20426;-71
2021/09/25 08:23:22;;;;;;;3.60;3.30;;;16.30;99.90;;;;;;5035440;28;20236;-71
2021/09/25 08:25:48;;;;;;;3.33;2.30;;;16.40;99.90;;;;;;5071641;28;20449;-71
2021/09/25 08:28:14;;;;;;;4.53;2.97;;;16.70;99.90;;;;;;5037641;28;20445;-72
2021/09/25 08:30:40;;;;;;;4.30;2.93;;;17.00;99.90;;;;;;5032425;28;20211;-69
2021/09/25 08:33:05;;;;;;;3.07;2.73;;;17.10;99.90;;;;;;5044457;28;20250;-71
2021/09/25 08:35:31;;;;;;;4.27;2.97;;;17.00;99.90;;;;;;5053665;28;20207;-70
2021/09/25 08:37:59;;;;;;;2.80;2.60;;;17.10;99.90;;;;;;5071349;28;20245;-71
2021/09/25 08:40:25;;;;;;;4.07;3.23;;;17.10;99.90;;;;;;5053334;28;20497;-71
2021/09/25 08:42:52;;;;;;;3.00;2.80;;;17.10;99.90;;;;;;5052388;28;20222;-71
2021/09/25 08:45:19;;;;;;;4.10;3.40;;;17.10;99.90;;;;;;5070418;28;20469;-71
2021/09/25 08:47:44;;;;;;;3.17;2.90;;;17.20;99.90;;;;;;5062736;28;20449;-70
2021/09/25 08:50:12;;;;;;;3.70;3.30;;;17.20;99.90;;;;;;5039850;28;20527;-71
2021/09/25 08:52:38;;;;;;;6.10;3.60;;;17.30;99.90;;;;;;5068814;28;20241;-71
2021/09/25 08:55:06;;;;;;;5.10;3.50;;;17.30;99.90;;;;;;5036702;28;20465;-71
2021/09/25 08:57:31;;;;;;;3.80;2.53;;;17.40;99.90;;;;;;5031969;28;20219;-72
2021/09/25 09:00:35;;;;;;;5.03;3.20;;;17.40;99.90;;;;;;5032576;28;20500;-71
2021/09/25 09:03:31;;;;;;;4.13;3.33;;;17.50;99.90;;;;;;5028615;28;20227;-71
2021/09/25 09:06:04;;;;;;;5.83;2.73;;;17.60;99.90;;;;;;5058588;28;20464;-71
2021/09/25 09:08:31;;;;;;;2.83;2.53;;;17.70;99.90;;;;;;5036088;28;20444;-72
2021/09/25 09:10:57;;;;;;;3.30;3.00;;;17.90;99.90;;;;;;5046168;28;20446;-71
2021/09/25 09:13:22;;;;;;;5.87;3.10;;;17.90;99.90;;;;;;5041502;28;20442;-72
2021/09/25 09:15:50;;;;;;;2.90;2.70;;;18.00;99.90;;;;;;5051889;28;20473;-71
2021/09/25 09:18:18;;;;;;;4.50;3.67;;;18.20;99.90;;;;;;5053323;28;20222;-71
2021/09/25 09:21:00;;;;;;;3.27;2.97;;;18.30;99.90;;;;;;5035951;28;20503;-71
2021/09/25 09:23:25;;;;;;;5.10;3.50;;;18.40;99.90;;;;;;5044327;28;20470;-72
2021/09/25 09:25:51;;;;;;;3.80;3.40;;;18.60;99.90;;;;;;5034684;28;20468;-72
2021/09/25 09:28:25;;;;;;;3.60;3.30;;;18.70;99.90;;;;;;5053234;28;20231;-71
2021/09/25 09:30:54;;;;;;;3.50;3.20;;;18.80;99.90;;;;;;5036396;28;20319;-71
2021/09/25 09:33:33;;;;;;;3.43;3.13;;;18.90;99.90;;;;;;5035053;28;20820;-72
2021/09/25 09:36:31;;;;;;;4.33;3.93;;;19.00;99.90;;;;;;5052160;28;20437;-71
2021/09/25 09:39:17;;;;;;;5.70;3.87;;;19.10;99.90;;;;;;5066068;28;20461;-72
2021/09/25 09:41:44;;;;;;;4.10;3.40;;;19.20;99.90;;;;;;5052362;28;20460;-72
2021/09/25 09:44:13;;;;;;;4.77;3.67;;;19.20;99.90;;;;;;5035447;28;20500;-70
2021/09/25 09:46:45;;;;;;;5.10;3.90;;;19.30;99.90;;;;;;5068756;28;20445;-71
2021/09/25 09:49:19;;;;;;;4.17;3.47;;;19.40;99.90;;;;;;5053139;28;20477;-71
2021/09/25 09:51:46;;;;;;;5.23;3.50;;;19.40;99.90;;;;;;5035218;28;20473;-70
2021/09/25 09:54:18;;;;;;;4.87;4.27;;;19.40;99.90;;;;;;5035254;28;20465;-71
2021/09/25 09:56:45;;;;;;;3.93;3.63;;;19.50;99.90;;;;;;5040554;28;20458;-71
2021/09/25 09:59:11;;;;;;;3.53;3.10;;;19.60;99.90;;;;;;5024519;28;20462;-71
2021/09/25 10:01:39;;;;;;;3.80;3.17;;;19.80;99.90;;;;;;5036588;28;20468;-71
2021/09/25 10:04:06;;;;;;;5.37;3.30;;;20.00;99.90;;;;;;5051795;28;21024;-71
2021/09/25 10:06:35;;;;;;;4.30;3.53;;;20.20;99.90;;;;;;5034866;28;21078;-71
2021/09/25 10:09:22;;;;;;;5.00;3.77;;;20.40;99.90;;;;;;5051305;28;20449;-71
2021/09/25 10:11:50;;;;;;;3.97;3.63;;;20.60;99.90;;;;;;5043858;28;20814;-71
2021/09/25 10:14:28;;;;;;;10.70;4.47;;;20.80;99.90;;;;;;5051048;28;20488;-73
2021/09/25 10:16:57;;;;;;;4.10;3.50;;;20.90;99.90;;;;;;5030952;28;20453;-71
2021/09/25 10:19:30;;;;;;;6.13;4.70;;;21.10;99.90;;;;;;5031812;28;20490;-71
2021/09/25 10:22:07;;;;;;;6.93;4.03;;;21.30;99.90;;;;;;5053473;28;20433;-72
2021/09/25 10:24:45;;;;;;;4.80;3.80;;;21.50;99.90;;;;;;5051969;28;20457;-71
2021/09/25 10:27:11;;;;;;;5.43;4.20;;;21.60;99.90;;;;;;5034034;28;20461;-71
2021/09/25 10:29:50;;;;;;;4.07;3.70;;;21.70;99.90;;;;;;5043458;28;20459;-71
2021/09/25 10:32:40;;;;;;;5.33;4.07;;;21.70;99.90;;;;;;5035155;28;20452;-72
2021/09/25 10:35:19;;;;;;;6.30;4.83;;;21.70;99.90;;;;;;5051185;28;20449;-71
2021/09/25 10:37:50;;;;;;;5.00;4.50;;;21.70;99.90;;;;;;5044791;28;20506;-71
2021/09/25 10:40:19;;;;;;;5.50;3.93;;;21.60;99.90;;;;;;5069246;28;20500;-71
2021/09/25 10:42:57;;;;;;;5.10;4.60;;;21.50;99.90;;;;;;5024313;28;20450;-71
2021/09/25 10:45:26;;;;;;;6.27;4.50;;;21.50;99.90;;;;;;5047624;28;20489;-71
2021/09/25 10:48:10;;;;;;;5.17;4.67;;;21.70;99.90;;;;;;5049879;28;20469;-71
2021/09/25 10:50:50;;;;;;;4.97;4.47;;;21.90;99.90;;;;;;5065357;28;20460;-71
2021/09/25 10:53:25;;;;;;;4.40;4.00;;;21.90;99.90;;;;;;5048798;28;20457;-72
2021/09/25 10:55:57;;;;;;;5.93;4.33;;;22.10;99.90;;;;;;5049651;28;20987;-71
2021/09/25 10:58:23;;;;;;;5.17;3.57;;;22.30;99.90;;;;;;5035976;28;20464;-71
2021/09/25 11:01:08;;;;;;;4.23;3.93;;;22.40;99.90;;;;;;5035447;28;20956;-71
2021/09/25 11:03:50;;;;;;;4.10;3.70;;;22.50;99.90;;;;;;5035012;28;20203;-72
2021/09/25 11:06:22;;;;;;;4.17;3.87;;;22.60;99.90;;;;;;5043238;28;20953;-72
2021/09/25 11:09:22;;;;;;;4.93;4.53;;;22.80;99.90;;;;;;5051254;28;20468;-71
2021/09/25 11:11:49;;;;;;;5.30;4.90;;;23.00;99.90;;;;;;5016253;28;20444;-71
2021/09/25 11:14:40;;;;;;;5.50;4.43;;;23.10;99.90;;;;;;5051294;28;20452;-72
2021/09/25 11:17:14;;;;;;;3.93;3.60;;;23.00;99.90;;;;;;5064970;28;20819;-73
2021/09/25 11:20:04;;;;;;;3.83;3.53;;;23.00;99.90;;;;;;5033122;28;20459;-72
2021/09/25 11:22:34;;;;;;;4.47;4.13;;;22.90;99.90;;;;;;5051189;28;20477;-72
2021/09/25 11:25:05;;;;;;;4.20;3.80;;;23.00;99.90;;;;;;5037470;28;20448;-72
2021/09/25 11:27:33;;;;;;;4.60;4.20;;;23.00;99.90;;;;;;5055816;28;20515;-72
2021/09/25 11:30:08;;;;;;;3.87;3.57;;;22.90;99.90;;;;;;5048685;28;20438;-71
2021/09/25 11:32:45;;;;;;;4.97;3.77;;;22.90;99.90;;;;;;5053573;28;20453;-71
2021/09/25 11:35:25;;;;;;;4.00;3.60;;;23.10;99.90;;;;;;5035568;28;20533;-71
2021/09/25 11:38:01;;;;;;;4.37;3.97;;;23.20;99.90;;;;;;5044227;28;20532;-71
2021/09/25 11:40:29;;;;;;;4.60;4.20;;;23.40;99.90;;;;;;5072318;28;20468;-71
2021/09/25 11:43:00;;;;;;;6.30;4.10;;;23.50;99.90;;;;;;5037199;28;20469;-71
2021/09/25 11:45:30;;;;;;;4.50;4.10;;;23.40;99.90;;;;;;5069929;28;20491;-72
2021/09/25 11:47:56;;;;;;;4.07;3.77;;;23.50;99.90;;;;;;5054407;28;20455;-72
2021/09/25 11:50:28;;;;;;;4.23;3.93;;;23.60;99.90;;;;;;5066329;28;20445;-72
2021/09/25 11:52:59;;;;;;;3.63;3.33;;;23.70;99.90;;;;;;5031620;28;20222;-71
2021/09/25 11:55:27;;;;;;;3.97;3.60;;;23.80;99.90;;;;;;5055438;28;20464;-72
2021/09/25 11:58:05;;;;;;;5.20;4.70;;;23.90;99.90;;;;;;5046594;28;20441;-72
2021/09/25 12:00:51;;;;;;;4.33;3.93;;;24.10;99.90;;;;;;5038041;28;21055;-72
2021/09/25 12:03:18;;;;;;;6.53;6.00;;;24.20;99.90;;;;;;5054501;28;20463;-71
2021/09/25 12:05:48;;;;;;;4.60;4.20;;;24.20;99.90;;;;;;5054504;28;20455;-71
2021/09/25 12:08:26;;;;;;;4.73;4.23;;;24.20;99.90;;;;;;5041847;28;20511;-72
2021/09/25 12:11:05;;;;;;;5.13;4.30;;;24.30;99.90;;;;;;5047670;28;20953;-71
2021/09/25 12:13:35;;;;;;;4.70;4.30;;;24.40;99.60;;;;;;5065692;28;20499;-71
2021/09/25 12:16:04;;;;;;;4.73;4.33;;;24.50;99.80;;;;;;5060266;28;20522;-71
2021/09/25 12:18:40;;;;;;;4.40;4.00;;;24.60;99.40;;;;;;5054461;28;20449;-72
2021/09/25 12:21:08;;;;;;;4.93;4.43;;;24.70;98.90;;;;;;5071589;28;20445;-71
2021/09/25 12:23:41;;;;;;;4.90;4.40;;;24.80;99.20;;;;;;5052477;28;20449;-72
2021/09/25 12:26:18;;;;;;;5.13;4.17;;;24.80;98.90;;;;;;5066430;28;20527;-71
2021/09/25 12:28:47;;;;;;;5.27;4.13;;;24.90;98.90;;;;;;5036365;28;20710;-72
2021/09/25 12:31:23;;;;;;;5.33;3.97;;;24.90;97.90;;;;;;5042254;28;20438;-72
2021/09/25 12:33:57;;;;;;;4.40;4.00;;;25.00;98.50;;;;;;5053588;28;20994;-72
2021/09/25 12:36:28;;;;;;;4.70;4.30;;;25.10;98.40;;;;;;5045328;28;20544;-71
2021/09/25 12:38:59;;;;;;;5.70;4.63;;;25.00;98.30;;;;;;5053424;28;20479;-72
2021/09/25 12:41:26;;;;;;;4.97;4.57;;;24.90;98.20;;;;;;5034068;28;20437;-71
2021/09/25 12:43:55;;;;;;;5.00;4.37;;;24.70;97.00;;;;;;5044303;28;20452;-72
2021/09/25 12:46:50;;;;;;;4.50;4.10;;;24.60;97.70;;;;;;5037393;28;20456;-72
2021/09/25 12:49:17;;;;;;;4.20;3.90;;;24.50;97.40;;;;;;5041811;28;20440;-72
2021/09/25 12:51:48;;;;;;;4.57;4.27;;;24.50;97.50;;;;;;5022483;28;20437;-70
2021/09/25 12:54:21;;;;;;;5.30;3.43;;;24.40;96.70;;;;;;5017415;28;20465;-71